createdAt,value
2019-04-04T00:00:29.464Z,98526.69
2019-04-04T00:02:55.430Z,98512.17
2019-04-04T00:05:21.561Z,98528.05
2019-04-04T00:07:47.560Z,98530.69
2019-04-04T00:10:13.410Z,98517.20
2019-04-04T00:12:39.639Z,98475.56
2019-04-04T00:15:05.786Z,98497.52
2019-04-04T00:17:31.641Z,98502.93
2019-04-04T00:19:59.011Z,98481.56
2019-04-04T00:22:25.493Z,98482.09
2019-04-04T00:24:51.466Z,98488.99
2019-04-04T00:27:17.474Z,98486.17
2019-04-04T00:29:43.400Z,98466.23
2019-04-04T00:32:09.364Z,98474.05
2019-04-04T00:34:35.270Z,98470.31
2019-04-04T00:37:04.394Z,98463.09
2019-04-04T00:39:29.331Z,98450.67
2019-04-04T00:41:55.366Z,98471.00
2019-04-04T00:44:23.082Z,98465.09
2019-04-04T00:46:49.132Z,98463.90
2019-04-04T00:49:15.151Z,98481.44
2019-04-04T00:51:41.267Z,98464.67
2019-04-04T00:54:07.204Z,98476.22
2019-04-04T00:56:33.317Z,98447.36
2019-04-04T00:58:59.274Z,98444.13
2019-04-04T01:01:26.895Z,98431.87
2019-04-04T01:03:53.078Z,98431.58
2019-04-04T01:06:20.545Z,98428.23
2019-04-04T01:08:46.623Z,98426.69
2019-04-04T01:11:12.463Z,98435.05
2019-04-04T01:13:38.752Z,98442.64
2019-04-04T01:16:04.960Z,98442.83
2019-04-04T01:18:31.020Z,98433.69
2019-04-04T01:20:57.108Z,98424.81
2019-04-04T01:23:23.042Z,98436.93
2019-04-04T01:25:49.008Z,98425.03
2019-04-04T01:28:14.985Z,98408.19
2019-04-04T01:30:41.707Z,98398.39
2019-04-04T01:33:08.738Z,98409.19
2019-04-04T01:35:34.843Z,98415.98
2019-04-04T01:38:00.800Z,98406.75
2019-04-04T01:40:26.618Z,98406.37
2019-04-04T01:42:52.528Z,98386.18
2019-04-04T01:45:18.370Z,98391.21
2019-04-04T01:47:47.643Z,98379.01
2019-04-04T01:50:12.417Z,98354.11
2019-04-04T01:52:38.475Z,98338.59
2019-04-04T01:55:04.536Z,98343.71
2019-04-04T01:57:30.515Z,98317.03
2019-04-04T01:59:56.472Z,98307.39
2019-04-04T02:02:22.492Z,98295.97
2019-04-04T02:04:48.675Z,98302.47
2019-04-04T02:07:14.650Z,98295.13
2019-04-04T02:09:43.255Z,98296.66
2019-04-04T02:12:08.637Z,98295.82
2019-04-04T02:14:34.575Z,98304.28
2019-04-04T02:17:00.455Z,98311.81
2019-04-04T02:19:26.302Z,98307.59
2019-04-04T02:21:52.133Z,98335.05
2019-04-04T02:24:18.157Z,98319.08
2019-04-04T02:26:44.092Z,98312.02
2019-04-04T02:29:11.153Z,98300.95
2019-04-04T02:31:53.772Z,98298.86
2019-04-04T02:34:19.621Z,98294.30
2019-04-04T02:36:48.775Z,98293.87
2019-04-04T02:39:15.388Z,98292.45
2019-04-04T02:41:41.411Z,98293.06
2019-04-04T02:44:07.442Z,98297.53
2019-04-04T02:46:33.546Z,98301.63
2019-04-04T02:48:59.624Z,98291.27
2019-04-04T02:51:25.483Z,98298.61
2019-04-04T02:53:52.953Z,98299.85
2019-04-04T02:56:18.958Z,98294.54
2019-04-04T02:58:46.338Z,98289.02
2019-04-04T03:01:12.939Z,98312.25
2019-04-04T03:03:42.054Z,98298.27
2019-04-04T03:06:07.007Z,98308.13
2019-04-04T03:08:36.726Z,98329.07
2019-04-04T03:11:00.991Z,98297.92
2019-04-04T03:13:31.141Z,98301.27
2019-04-04T03:15:55.053Z,98299.23
2019-04-04T03:18:20.936Z,98308.30
2019-04-04T03:20:50.373Z,98304.53
2019-04-04T03:23:14.506Z,98309.73
2019-04-04T03:25:40.445Z,98285.35
2019-04-04T03:28:06.256Z,98294.81
2019-04-04T03:30:32.099Z,98292.33
2019-04-04T03:32:58.125Z,98295.27
2019-04-04T03:35:27.987Z,98274.57
2019-04-04T03:37:52.161Z,98282.05
2019-04-04T03:40:18.270Z,98281.14
2019-04-04T03:42:44.854Z,98277.43
2019-04-04T03:45:11.065Z,98268.19
2019-04-04T03:47:36.988Z,98283.17
2019-04-04T03:50:04.812Z,98275.89
2019-04-04T03:52:30.753Z,98269.53
2019-04-04T03:54:56.722Z,98265.50
2019-04-04T03:57:22.519Z,98231.98
2019-04-04T03:59:48.359Z,98238.12
2019-04-04T04:02:17.831Z,98238.16
2019-04-04T04:04:42.111Z,98238.16
2019-04-04T04:07:13.841Z,98232.66
2019-04-04T04:09:37.134Z,98225.56
2019-04-04T04:12:03.002Z,98206.66
2019-04-04T04:14:28.847Z,98208.69
2019-04-04T04:16:54.834Z,98218.91
2019-04-04T04:19:24.028Z,98223.53
2019-04-04T04:21:48.446Z,98207.16
2019-04-04T04:24:14.412Z,98206.48
2019-04-04T04:26:41.874Z,98202.50
2019-04-04T04:29:08.128Z,98191.56
2019-04-04T04:31:33.972Z,98194.70
2019-04-04T04:34:01.697Z,98189.70
2019-04-04T04:36:27.678Z,98196.36
2019-04-04T04:38:58.848Z,98164.40
2019-04-04T04:41:21.504Z,98168.28
2019-04-04T04:43:47.415Z,98161.41
2019-04-04T04:46:16.848Z,98143.30
2019-04-04T04:48:41.036Z,98153.45
2019-04-04T04:51:06.869Z,98110.97
2019-04-04T04:53:32.780Z,98130.23
2019-04-04T04:56:00.588Z,98095.68
2019-04-04T04:58:26.445Z,98045.77
2019-04-04T05:00:52.435Z,98104.19
2019-04-04T05:03:18.266Z,98116.36
2019-04-04T05:05:44.121Z,98119.02
2019-04-04T05:08:10.690Z,98133.22
2019-04-04T05:10:36.584Z,98132.69
2019-04-04T05:13:02.568Z,98136.83
2019-04-04T05:15:30.428Z,98115.39
2019-04-04T05:17:56.429Z,98079.02
2019-04-04T05:20:23.126Z,98102.66
2019-04-04T05:22:50.507Z,98108.95
2019-04-04T05:25:16.382Z,98089.92
2019-04-04T05:27:42.222Z,98106.63
2019-04-04T05:30:08.709Z,98078.33
2019-04-04T05:32:34.629Z,98107.58
2019-04-04T05:35:01.171Z,98079.22
2019-04-04T05:37:28.720Z,98078.42
2019-04-04T05:39:55.411Z,98099.75
2019-04-04T05:42:21.459Z,98053.84
2019-04-04T05:44:47.319Z,98068.22
2019-04-04T05:47:13.137Z,98047.69
2019-04-04T05:49:38.979Z,98040.81
2019-04-04T05:52:04.962Z,98046.12
2019-04-04T05:54:30.802Z,98052.55
2019-04-04T05:56:56.685Z,98028.59
2019-04-04T05:59:23.920Z,98042.39
2019-04-04T06:01:50.388Z,98043.83
2019-04-04T06:04:19.121Z,98049.77
2019-04-04T06:06:44.251Z,98031.08
2019-04-04T06:09:10.126Z,98031.52
2019-04-04T06:11:35.975Z,98039.52
2019-04-04T06:14:01.930Z,98040.12
2019-04-04T06:16:27.744Z,98036.58
2019-04-04T06:18:53.648Z,98069.12
2019-04-04T06:21:19.486Z,98061.19
2019-04-04T06:23:45.424Z,98085.91
2019-04-04T06:26:11.302Z,98080.52
2019-04-04T06:28:37.126Z,98066.99
2019-04-04T06:31:03.196Z,98068.87
2019-04-04T06:33:29.088Z,98077.82
2019-04-04T06:35:54.933Z,98058.33
2019-04-04T06:38:23.092Z,98056.44
2019-04-04T06:40:48.812Z,98078.57
2019-04-04T06:43:14.756Z,98078.36
2019-04-04T06:45:40.770Z,98081.67
2019-04-04T06:48:06.724Z,98086.77
2019-04-04T06:50:32.608Z,98113.63
2019-04-04T06:52:58.454Z,98076.36
2019-04-04T06:55:24.310Z,98098.96
2019-04-04T06:57:51.350Z,98103.18
2019-04-04T07:00:18.578Z,98100.64
2019-04-04T07:02:47.161Z,98134.16
2019-04-04T07:05:14.311Z,98091.33
2019-04-04T07:07:43.090Z,98122.24
2019-04-04T07:10:08.811Z,98152.69
2019-04-04T07:12:37.859Z,98117.69
2019-04-04T07:15:06.280Z,98147.28
2019-04-04T07:17:32.128Z,98129.23
2019-04-04T07:19:57.977Z,98149.27
2019-04-04T07:22:24.949Z,98172.62
2019-04-04T07:24:51.407Z,98157.13
2019-04-04T07:27:17.235Z,98144.98
2019-04-04T07:29:43.526Z,98147.98
2019-04-04T07:32:10.168Z,98161.63
2019-04-04T07:34:36.194Z,98164.40
2019-04-04T07:37:02.306Z,98144.98
2019-04-04T07:39:31.994Z,98157.39
2019-04-04T07:41:55.879Z,98178.20
2019-04-04T07:44:23.291Z,98171.68
2019-04-04T07:46:49.585Z,98213.55
2019-04-04T07:49:15.528Z,98254.97
2019-04-04T07:51:41.478Z,98277.08
2019-04-04T07:54:08.036Z,98268.28
2019-04-04T07:56:34.114Z,98260.75
2019-04-04T07:59:00.113Z,98262.00
2019-04-04T08:01:26.007Z,98259.94
2019-04-04T08:03:51.880Z,98259.11
2019-04-04T08:06:17.822Z,98252.19
2019-04-04T08:08:43.651Z,98247.58
2019-04-04T08:11:09.710Z,98246.94
2019-04-04T08:13:35.574Z,98240.36
2019-04-04T08:16:01.508Z,98241.97
2019-04-04T08:18:27.476Z,98234.16
2019-04-04T08:20:53.312Z,98236.80
2019-04-04T08:23:19.291Z,98232.80
2019-04-04T08:25:45.138Z,98236.84
2019-04-04T08:28:10.980Z,98234.28
2019-04-04T08:30:37.069Z,98234.56
2019-04-04T08:33:02.908Z,98226.19
2019-04-04T08:35:29.928Z,98229.75
2019-04-04T08:37:55.924Z,98223.98
2019-04-04T08:40:21.924Z,98228.07
2019-04-04T08:42:47.823Z,98232.04
2019-04-04T08:45:13.840Z,98239.44
2019-04-04T08:47:39.669Z,98236.62
2019-04-04T08:50:05.962Z,98246.84
2019-04-04T08:52:32.018Z,98240.43
2019-04-04T08:54:57.905Z,98245.72
2019-04-04T08:57:23.977Z,98233.84
2019-04-04T08:59:49.829Z,98233.92
2019-04-04T09:02:15.740Z,98230.36
2019-04-04T09:04:41.624Z,98228.76
2019-04-04T09:07:07.497Z,98226.95
2019-04-04T09:09:34.795Z,98218.22
2019-04-04T09:12:02.091Z,98214.64
2019-04-04T09:14:28.018Z,98211.02
2019-04-04T09:16:54.128Z,98209.02
2019-04-04T09:19:20.111Z,98205.81
2019-04-04T09:21:45.937Z,98206.00
2019-04-04T09:24:11.929Z,98193.31
2019-04-04T09:26:39.587Z,98182.36
2019-04-04T09:29:05.443Z,98188.50
2019-04-04T09:31:31.310Z,98188.20
2019-04-04T09:33:57.170Z,98189.44
2019-04-04T09:36:23.043Z,98184.70
2019-04-04T09:38:49.008Z,98185.64
2019-04-04T09:41:15.102Z,98186.47
2019-04-04T09:43:40.931Z,98191.41
2019-04-04T09:46:06.830Z,98191.69
2019-04-04T09:48:32.779Z,98199.36
2019-04-04T09:50:58.590Z,98199.17
2019-04-04T09:53:24.616Z,98199.36
2019-04-04T09:55:50.746Z,98204.92
2019-04-04T09:58:16.659Z,98211.77
2019-04-04T10:00:42.959Z,98224.92
2019-04-04T10:03:08.884Z,98216.00
2019-04-04T10:05:35.173Z,98222.84
2019-04-04T10:08:02.169Z,98217.99
2019-04-04T10:10:28.238Z,98210.14
2019-04-04T10:12:57.621Z,98220.93
2019-04-04T10:15:23.668Z,98214.48
2019-04-04T10:17:49.659Z,98220.56
2019-04-04T10:20:15.653Z,98231.88
2019-04-04T10:22:41.686Z,98230.08
2019-04-04T10:25:07.735Z,98237.62
2019-04-04T10:27:33.837Z,98242.08
2019-04-04T10:29:59.931Z,98236.30
2019-04-04T10:32:25.809Z,98241.42
2019-04-04T10:34:51.819Z,98236.34
2019-04-04T10:37:17.715Z,98236.14
2019-04-04T10:39:43.598Z,98229.55
2019-04-04T10:42:09.407Z,98228.79
2019-04-04T10:44:37.067Z,98232.08
2019-04-04T10:47:02.926Z,98226.78
2019-04-04T10:49:28.930Z,98226.20
2019-04-04T10:51:54.702Z,98217.60
2019-04-04T10:54:20.492Z,98228.41
2019-04-04T10:56:46.205Z,98219.98
2019-04-04T10:59:12.054Z,98208.63
2019-04-04T11:01:37.903Z,98205.62
2019-04-04T11:04:03.723Z,98205.53
2019-04-04T11:06:29.429Z,98208.17
2019-04-04T11:08:55.368Z,98202.49
2019-04-04T11:11:21.099Z,98197.56
2019-04-04T11:13:46.851Z,98200.98
2019-04-04T11:16:12.574Z,98197.77
2019-04-04T11:18:38.532Z,98201.25
2019-04-04T11:21:06.177Z,98195.49
2019-04-04T11:23:32.033Z,98201.98
2019-04-04T11:25:57.928Z,98209.08
2019-04-04T11:28:23.669Z,98208.99
2019-04-04T11:30:49.541Z,98204.85
2019-04-04T11:33:15.467Z,98204.45
2019-04-04T11:35:41.251Z,98198.22
2019-04-04T11:38:07.718Z,98199.92
2019-04-04T11:40:33.508Z,98197.09
2019-04-04T11:42:59.302Z,98197.47
2019-04-04T11:45:25.034Z,98195.75
2019-04-04T11:47:50.848Z,98190.19
2019-04-04T11:50:19.361Z,98175.34
2019-04-04T11:52:45.224Z,98176.50
2019-04-04T11:55:11.065Z,98173.47
2019-04-04T11:57:36.953Z,98177.63
2019-04-04T12:00:04.322Z,98174.41
2019-04-04T12:02:32.608Z,98174.75
2019-04-04T12:04:58.022Z,98172.50
2019-04-04T12:07:23.986Z,98168.64
2019-04-04T12:09:49.766Z,98158.03
2019-04-04T12:12:15.472Z,98150.09
2019-04-04T12:14:41.230Z,98145.86
2019-04-04T12:17:07.018Z,98156.44
2019-04-04T12:19:32.769Z,98147.86
2019-04-04T12:21:58.540Z,98159.00
2019-04-04T12:24:24.349Z,98141.05
2019-04-04T12:26:50.464Z,98147.58
2019-04-04T12:29:17.654Z,98151.34
2019-04-04T12:31:43.430Z,98143.59
2019-04-04T12:34:09.471Z,98132.73
2019-04-04T12:36:35.270Z,98118.82
2019-04-04T12:39:01.157Z,98109.09
2019-04-04T12:41:28.229Z,98103.53
2019-04-04T12:43:54.176Z,98113.63
2019-04-04T12:46:19.953Z,98103.72
2019-04-04T12:48:45.809Z,98098.78
2019-04-04T12:51:11.605Z,98087.45
2019-04-04T12:53:37.336Z,98084.53
2019-04-04T12:56:03.537Z,98084.35
2019-04-04T12:58:29.521Z,98071.56
2019-04-04T13:00:55.331Z,98071.30
2019-04-04T13:03:22.405Z,98080.64
2019-04-04T13:05:48.650Z,98067.05
2019-04-04T13:08:14.448Z,98054.02
2019-04-04T13:10:40.303Z,98047.96
2019-04-04T13:13:06.220Z,98044.03
2019-04-04T13:15:33.696Z,98034.34
2019-04-04T13:17:59.558Z,98025.02
2019-04-04T13:20:25.535Z,98021.44
2019-04-04T13:22:51.459Z,98012.56
2019-04-04T13:25:17.341Z,98008.23
2019-04-04T13:27:43.219Z,98012.95
2019-04-04T13:30:10.418Z,98009.77
2019-04-04T13:32:36.381Z,98012.86
2019-04-04T13:35:05.735Z,98016.21
2019-04-04T13:37:30.765Z,98013.57
2019-04-04T13:39:56.637Z,98003.16
2019-04-04T13:42:22.546Z,97994.65
2019-04-04T13:44:48.318Z,97996.16
2019-04-04T13:47:14.059Z,97995.53
2019-04-04T13:49:39.752Z,97987.30
2019-04-04T13:52:05.538Z,97980.59
2019-04-04T13:54:31.520Z,97979.38
2019-04-04T13:56:57.512Z,97972.66
2019-04-04T13:59:23.639Z,97966.97
2019-04-04T14:01:49.648Z,97963.47
2019-04-04T14:04:15.555Z,97957.68
2019-04-04T14:06:41.340Z,97953.77
2019-04-04T14:09:07.651Z,97961.33
2019-04-04T14:11:33.596Z,97968.02
2019-04-04T14:13:59.500Z,97961.99
2019-04-04T14:16:25.453Z,97970.02
2019-04-04T14:18:51.325Z,97983.88
2019-04-04T14:21:17.146Z,97977.20
2019-04-04T14:23:45.259Z,97989.73
2019-04-04T14:26:10.887Z,97994.33
2019-04-04T14:28:36.827Z,97998.52
2019-04-04T14:31:02.733Z,97986.57
2019-04-04T14:33:28.637Z,97982.16
2019-04-04T14:35:54.415Z,97983.84
2019-04-04T14:38:20.271Z,97994.05
2019-04-04T14:40:46.201Z,97996.52
2019-04-04T14:43:12.022Z,97996.35
2019-04-04T14:45:37.924Z,97997.66
2019-04-04T14:48:03.849Z,98005.41
2019-04-04T14:50:31.655Z,98014.67
2019-04-04T14:52:57.701Z,98007.77
2019-04-04T14:55:23.668Z,98004.39
2019-04-04T14:57:49.443Z,98012.58
2019-04-04T15:00:20.322Z,98024.04
2019-04-04T15:02:46.210Z,98029.55
2019-04-04T15:05:12.178Z,98041.39
2019-04-04T15:07:38.122Z,98046.20
2019-04-04T15:10:04.639Z,98047.23
2019-04-04T15:12:30.677Z,98046.20
2019-04-04T15:14:56.617Z,98042.99
2019-04-04T15:17:22.452Z,98042.00
2019-04-04T15:19:48.510Z,98029.44
2019-04-04T15:22:14.405Z,98030.83
2019-04-04T15:24:40.074Z,98035.27
2019-04-04T15:27:05.882Z,98031.36
2019-04-04T15:29:31.653Z,98030.27
2019-04-04T15:31:57.389Z,98023.44
2019-04-04T15:34:23.225Z,98020.47
2019-04-04T15:36:49.104Z,98024.40
2019-04-04T15:39:16.071Z,98015.88
2019-04-04T15:41:41.997Z,98021.20
2019-04-04T15:44:07.974Z,98011.64
2019-04-04T15:46:33.768Z,97997.39
2019-04-04T15:48:59.532Z,97991.67
2019-04-04T15:51:25.457Z,97981.61
2019-04-04T15:53:51.305Z,97974.84
2019-04-04T15:56:17.120Z,97969.39
2019-04-04T15:58:43.081Z,97972.52
2019-04-04T16:01:08.920Z,97967.34
2019-04-04T16:03:34.762Z,97964.98
2019-04-04T16:06:00.676Z,97965.08
2019-04-04T16:08:26.569Z,97960.13
2019-04-04T16:10:52.346Z,97958.11
2019-04-04T16:13:18.396Z,97950.36
2019-04-04T16:15:44.205Z,97939.58
2019-04-04T16:18:10.074Z,97942.46
2019-04-04T16:20:36.109Z,97944.70
2019-04-04T16:23:02.099Z,97957.10
2019-04-04T16:25:27.943Z,97956.46
2019-04-04T16:27:53.965Z,97949.90
2019-04-04T16:30:19.888Z,97944.09
2019-04-04T16:32:45.661Z,97943.98
2019-04-04T16:35:11.483Z,97933.48
2019-04-04T16:37:37.200Z,97928.25
2019-04-04T16:40:09.211Z,97926.48
2019-04-04T16:42:32.619Z,97923.00
2019-04-04T16:44:58.445Z,97922.24
2019-04-04T16:47:24.373Z,97910.54
2019-04-04T16:49:50.346Z,97908.68
2019-04-04T16:52:16.173Z,97909.83
2019-04-04T16:54:42.044Z,97910.37
2019-04-04T16:57:07.931Z,97906.23
2019-04-04T16:59:33.663Z,97910.02
2019-04-04T17:01:59.515Z,97912.63
2019-04-04T17:04:25.346Z,97903.33
2019-04-04T17:06:51.164Z,97896.83
2019-04-04T17:09:17.027Z,97901.64
2019-04-04T17:11:42.847Z,97907.14
2019-04-04T17:14:08.727Z,97906.26
2019-04-04T17:16:34.662Z,97904.72
2019-04-04T17:19:00.515Z,97907.94
2019-04-04T17:21:26.506Z,97915.86
2019-04-04T17:23:52.290Z,97921.12
2019-04-04T17:26:19.186Z,97929.02
2019-04-04T17:28:45.606Z,97910.47
2019-04-04T17:31:11.500Z,97908.98
2019-04-04T17:33:37.310Z,97912.84
2019-04-04T17:36:03.600Z,97915.16
2019-04-04T17:38:29.609Z,97926.80
2019-04-04T17:40:55.504Z,97933.75
2019-04-04T17:43:21.370Z,97936.70
2019-04-04T17:45:47.185Z,97932.83
2019-04-04T17:48:13.097Z,97926.48
2019-04-04T17:50:39.149Z,97918.56
2019-04-04T17:53:05.415Z,97924.36
2019-04-04T17:55:31.181Z,97910.52
2019-04-04T17:57:58.345Z,97915.63
2019-04-04T18:00:25.082Z,97917.16
2019-04-04T18:02:50.900Z,97929.44
2019-04-04T18:05:16.939Z,97929.08
2019-04-04T18:07:42.767Z,97938.11
2019-04-04T18:10:08.931Z,97937.19
2019-04-04T18:12:40.275Z,97950.37
2019-04-04T18:15:03.873Z,97955.98
2019-04-04T18:17:29.878Z,97955.22
2019-04-04T18:19:55.595Z,97957.02
2019-04-04T18:22:21.455Z,97951.27
2019-04-04T18:24:47.461Z,97956.75
2019-04-04T18:27:13.313Z,97954.42
2019-04-04T18:29:39.129Z,97965.95
2019-04-04T18:32:05.090Z,97958.67
2019-04-04T18:34:31.342Z,97958.86
2019-04-04T18:36:57.523Z,97954.09
2019-04-04T18:39:23.379Z,97956.86
2019-04-04T18:41:49.232Z,97958.74
2019-04-04T18:44:15.421Z,97960.00
2019-04-04T18:46:41.261Z,97974.00
2019-04-04T18:49:07.158Z,97966.02
2019-04-04T18:51:33.127Z,97960.41
2019-04-04T18:53:58.866Z,97959.10
2019-04-04T18:56:24.955Z,97952.30
2019-04-04T18:58:50.758Z,97952.28
2019-04-04T19:01:16.603Z,97962.56
2019-04-04T19:03:42.450Z,97964.14
2019-04-04T19:06:08.422Z,97964.08
2019-04-04T19:08:34.367Z,97968.53
2019-04-04T19:11:00.176Z,97971.64
2019-04-04T19:13:26.219Z,97973.22
2019-04-04T19:15:52.325Z,97977.80
2019-04-04T19:18:18.254Z,97986.97
2019-04-04T19:20:44.137Z,97979.26
2019-04-04T19:23:13.993Z,97980.02
2019-04-04T19:25:40.967Z,97979.67
2019-04-04T19:28:06.877Z,97991.96
2019-04-04T19:30:33.889Z,97985.45
2019-04-04T19:32:59.796Z,97993.33
2019-04-04T19:35:28.078Z,97987.91
2019-04-04T19:37:59.916Z,97991.76
2019-04-04T19:40:21.712Z,97995.06
2019-04-04T19:42:47.681Z,98001.81
2019-04-04T19:45:14.028Z,98015.34
2019-04-04T19:47:39.961Z,98015.52
2019-04-04T19:50:09.866Z,98010.06
2019-04-04T19:52:35.854Z,97999.52
2019-04-04T19:55:01.893Z,97998.97
2019-04-04T19:57:28.539Z,97986.66
2019-04-04T19:59:54.509Z,97999.41
2019-04-04T20:02:20.752Z,98000.17
2019-04-04T20:04:46.736Z,98000.62
2019-04-04T20:07:12.658Z,98002.84
2019-04-04T20:09:38.645Z,98002.80
2019-04-04T20:12:05.677Z,97995.48
2019-04-04T20:14:31.605Z,97995.04
2019-04-04T20:16:57.588Z,97986.05
2019-04-04T20:19:23.632Z,97987.81
2019-04-04T20:21:49.561Z,97982.09
2019-04-04T20:24:15.527Z,97986.67
2019-04-04T20:26:41.565Z,97986.89
2019-04-04T20:29:09.006Z,97990.97
2019-04-04T20:31:34.943Z,97997.57
2019-04-04T20:34:03.223Z,97999.81
2019-04-04T20:36:28.871Z,98010.28
2019-04-04T20:38:54.723Z,98014.23
2019-04-04T20:41:20.782Z,98014.29
2019-04-04T20:43:46.699Z,98013.30
2019-04-04T20:46:14.558Z,98015.88
2019-04-04T20:48:40.495Z,98019.01
2019-04-04T20:51:06.724Z,98025.73
2019-04-04T20:53:36.282Z,98023.36
2019-04-04T20:56:02.208Z,98019.09
2019-04-04T20:58:28.179Z,98026.81
2019-04-04T21:00:53.997Z,98026.94
2019-04-04T21:03:19.949Z,98031.56
2019-04-04T21:05:45.895Z,98030.01
2019-04-04T21:08:11.674Z,98033.62
2019-04-04T21:10:37.439Z,98031.53
2019-04-04T21:13:03.369Z,98029.90
2019-04-04T21:15:29.187Z,98026.29
2019-04-04T21:17:55.014Z,98030.66
2019-04-04T21:20:20.729Z,98021.23
2019-04-04T21:22:46.467Z,98018.32
2019-04-04T21:25:12.321Z,98017.34
2019-04-04T21:27:38.040Z,98012.69
2019-04-04T21:30:07.442Z,98004.87
2019-04-04T21:32:33.268Z,97994.80
2019-04-04T21:34:59.158Z,97986.89
2019-04-04T21:37:24.982Z,97982.03
2019-04-04T21:39:50.806Z,97970.54
2019-04-04T21:42:16.592Z,97968.14
2019-04-04T21:44:42.374Z,97968.14
2019-04-04T21:47:08.192Z,97971.09
2019-04-04T21:49:34.017Z,97981.62
2019-04-04T21:52:00.058Z,97997.00
2019-04-04T21:54:25.975Z,98006.92
2019-04-04T21:56:51.786Z,98008.08
2019-04-04T21:59:17.744Z,98024.61
2019-04-04T22:01:43.663Z,98038.69
2019-04-04T22:04:46.998Z,98046.27
2019-04-04T22:07:12.958Z,98046.90
2019-04-04T22:09:38.887Z,98042.87
2019-04-04T22:12:04.863Z,98049.60
2019-04-04T22:14:30.764Z,98052.56
2019-04-04T22:16:56.678Z,98052.31
2019-04-04T22:19:22.576Z,98043.02
2019-04-04T22:21:48.462Z,98039.31
2019-04-04T22:24:14.271Z,98031.03
2019-04-04T22:26:40.171Z,98027.77
2019-04-04T22:29:05.877Z,98038.23
2019-04-04T22:31:31.572Z,98052.87
2019-04-04T22:33:57.284Z,98054.02
2019-04-04T22:36:23.072Z,98054.48
2019-04-04T22:38:48.928Z,98045.89
2019-04-04T22:41:14.647Z,98048.45
2019-04-04T22:43:40.428Z,98043.22
2019-04-04T22:46:06.268Z,98047.45
2019-04-04T22:48:31.975Z,98049.66
2019-04-04T22:50:57.645Z,98057.52
2019-04-04T22:53:23.434Z,98069.94
2019-04-04T22:55:49.253Z,98070.77
2019-04-04T22:58:27.360Z,98073.47
2019-04-04T23:00:42.782Z,98079.18
2019-04-04T23:03:08.547Z,98081.37
2019-04-04T23:05:34.273Z,98082.56
2019-04-04T23:07:59.972Z,98087.20
2019-04-04T23:10:25.639Z,98088.52
2019-04-04T23:12:51.307Z,98092.91
2019-04-04T23:15:17.045Z,98095.05
2019-04-04T23:17:45.370Z,98103.24
2019-04-04T23:20:10.548Z,98112.47
2019-04-04T23:22:36.325Z,98113.08
2019-04-04T23:25:03.029Z,98118.66
2019-04-04T23:27:28.707Z,98115.44
2019-04-04T23:29:54.660Z,98118.70
2019-04-04T23:32:20.427Z,98118.99
2019-04-04T23:34:46.123Z,98116.06
2019-04-04T23:37:11.933Z,98113.09
2019-04-04T23:39:37.727Z,98118.99
2019-04-04T23:42:03.416Z,98113.31
2019-04-04T23:44:29.229Z,98123.02
2019-04-04T23:46:54.944Z,98124.41
2019-04-04T23:49:20.719Z,98128.40
2019-04-04T23:51:46.627Z,98128.84
2019-04-04T23:54:12.322Z,98123.83
2019-04-04T23:56:38.538Z,98126.13
2019-04-04T23:59:04.313Z,98117.45
